createdAt,value
2022-12-01T00:02:26.287Z,35.83
2022-12-01T00:07:19.919Z,29.27
2022-12-01T00:12:13.053Z,25.70
2022-12-01T00:17:07.409Z,31.10
2022-12-01T00:22:00.400Z,27.60
2022-12-01T00:26:52.953Z,32.90
2022-12-01T00:31:45.651Z,29.60
2022-12-01T00:36:39.740Z,34.67
2022-12-01T00:41:33.763Z,29.00
2022-12-01T00:46:26.595Z,33.17
2022-12-01T00:51:19.388Z,31.53
2022-12-01T00:56:13.470Z,29.73
2022-12-01T01:01:06.426Z,28.20
2022-12-01T01:06:04.525Z,35.13
2022-12-01T01:10:59.951Z,31.47
2022-12-01T01:15:59.728Z,28.27
2022-12-01T01:20:55.956Z,25.77
2022-12-01T01:25:48.577Z,29.13
2022-12-01T01:30:41.304Z,28.93
2022-12-01T01:35:35.311Z,27.30
2022-12-01T01:40:27.868Z,25.33
2022-12-01T01:45:22.371Z,13.53
2022-12-01T01:50:16.130Z,17.93
2022-12-01T01:55:10.424Z,22.23
2022-12-01T02:00:04.788Z,16.23
2022-12-01T02:05:10.910Z,18.87
2022-12-01T02:10:03.524Z,19.17
2022-12-01T02:15:07.932Z,20.77
2022-12-01T02:20:23.591Z,18.30
2022-12-01T02:25:29.585Z,21.17
2022-12-01T02:30:30.145Z,19.87
2022-12-01T02:35:26.857Z,19.47
2022-12-01T02:40:21.445Z,14.20
2022-12-01T02:45:16.291Z,23.20
2022-12-01T02:50:11.476Z,23.57
2022-12-01T02:55:04.258Z,21.67
2022-12-01T02:59:57.041Z,19.83
2022-12-01T03:04:55.922Z,21.70
2022-12-01T03:09:56.251Z,23.13
2022-12-01T03:14:54.117Z,21.47
2022-12-01T03:19:49.985Z,23.00
2022-12-01T03:24:45.212Z,21.00
2022-12-01T03:29:41.475Z,19.53
2022-12-01T03:34:38.061Z,20.50
2022-12-01T03:39:33.361Z,20.87
2022-12-01T03:44:31.256Z,21.10
2022-12-01T03:49:26.928Z,20.30
2022-12-01T03:54:21.924Z,21.17
2022-12-01T03:59:15.892Z,22.63
2022-12-01T04:04:09.681Z,26.23
2022-12-01T04:09:03.946Z,19.63
2022-12-01T04:13:57.058Z,21.63
2022-12-01T04:18:49.788Z,22.77
2022-12-01T04:24:00.161Z,20.80
2022-12-01T04:28:54.348Z,23.03
2022-12-01T04:33:47.177Z,23.87
2022-12-01T04:38:40.038Z,19.57
2022-12-01T04:43:32.765Z,21.60
2022-12-01T04:48:27.107Z,25.13
2022-12-01T04:53:19.738Z,21.10
2022-12-01T04:58:12.416Z,20.10
2022-12-01T05:03:05.237Z,23.90
2022-12-01T05:08:00.526Z,21.00
2022-12-01T05:12:53.429Z,29.10
2022-12-01T05:17:46.260Z,24.23
2022-12-01T05:23:04.455Z,22.70
2022-12-01T05:27:53.211Z,20.77
2022-12-01T05:32:46.216Z,25.80
2022-12-01T05:37:39.196Z,22.73
2022-12-01T05:42:31.870Z,25.93
2022-12-01T05:47:25.852Z,28.53
2022-12-01T05:52:18.531Z,32.00
2022-12-01T05:57:11.205Z,28.60
2022-12-01T06:02:03.917Z,26.43
2022-12-01T06:06:58.056Z,30.00
2022-12-01T06:11:52.654Z,32.00
2022-12-01T06:16:45.492Z,27.40
2022-12-01T06:21:38.551Z,27.60
2022-12-01T06:26:32.575Z,29.70
2022-12-01T06:31:25.303Z,29.57
2022-12-01T06:36:19.160Z,29.97
2022-12-01T06:41:11.912Z,30.23
2022-12-01T06:46:06.534Z,27.50
2022-12-01T06:50:59.249Z,27.93
2022-12-01T06:55:51.930Z,25.73
2022-12-01T07:00:50.465Z,29.10
2022-12-01T07:05:46.131Z,31.13
2022-12-01T07:10:39.199Z,28.60
2022-12-01T07:15:32.111Z,29.23
2022-12-01T07:20:24.823Z,32.70
2022-12-01T07:25:18.912Z,30.83
2022-12-01T07:30:12.251Z,31.80
2022-12-01T07:35:04.971Z,33.60
2022-12-01T07:39:57.582Z,28.07
2022-12-01T07:44:51.527Z,27.97
2022-12-01T07:49:44.234Z,30.80
2022-12-01T07:54:37.012Z,31.93
2022-12-01T07:59:30.050Z,33.57
2022-12-01T08:04:24.160Z,29.87
2022-12-01T08:09:16.824Z,34.80
2022-12-01T08:14:09.519Z,33.90
2022-12-01T08:19:02.194Z,30.13
2022-12-01T08:23:57.236Z,31.30
2022-12-01T08:28:50.132Z,36.53
2022-12-01T08:33:43.126Z,35.07
2022-12-01T08:38:35.809Z,39.43
2022-12-01T08:43:55.880Z,33.37
2022-12-01T08:48:42.525Z,33.70
2022-12-01T08:53:35.652Z,30.07
2022-12-01T08:58:29.886Z,29.30
2022-12-01T09:03:22.565Z,32.63
2022-12-01T09:08:33.976Z,33.70
2022-12-01T09:13:27.988Z,34.90
2022-12-01T09:18:21.914Z,32.90
2022-12-01T09:23:14.796Z,28.20
2022-12-01T09:28:07.567Z,30.17
2022-12-01T09:33:00.887Z,36.50
2022-12-01T09:37:54.846Z,34.40
2022-12-01T09:42:47.906Z,33.83
2022-12-01T09:47:42.623Z,31.30
2022-12-01T09:52:39.554Z,33.50
2022-12-01T09:57:35.329Z,33.23
2022-12-01T10:02:31.162Z,31.57
2022-12-01T10:07:25.756Z,31.40
2022-12-01T10:12:20.279Z,30.80
2022-12-01T10:17:20.542Z,32.00
2022-12-01T10:22:21.956Z,30.33
2022-12-01T10:27:18.354Z,31.33
2022-12-01T10:32:15.470Z,31.13
2022-12-01T10:37:15.500Z,30.73
2022-12-01T10:42:11.524Z,34.90
2022-12-01T10:47:04.224Z,34.57
2022-12-01T10:51:57.868Z,27.93
2022-12-01T10:56:56.226Z,37.87
2022-12-01T11:01:49.326Z,39.87
2022-12-01T11:06:42.108Z,38.87
2022-12-01T11:11:37.368Z,34.80
2022-12-01T11:16:37.255Z,31.30
2022-12-01T11:21:29.891Z,32.77
2022-12-01T11:26:25.191Z,33.60
2022-12-01T11:31:18.167Z,29.33
2022-12-01T11:36:20.089Z,35.00
2022-12-01T11:41:24.521Z,30.40
2022-12-01T11:46:17.507Z,36.87
2022-12-01T11:51:13.093Z,29.60
2022-12-01T11:56:17.445Z,26.10
2022-12-01T12:01:21.705Z,30.03
2022-12-01T12:06:39.568Z,29.13
2022-12-01T12:11:37.543Z,28.43
2022-12-01T12:16:36.001Z,31.63
2022-12-01T12:21:33.200Z,28.07
2022-12-01T12:26:27.128Z,27.87
2022-12-01T12:31:24.151Z,22.80
2022-12-01T12:36:28.909Z,31.73
2022-12-01T12:41:29.600Z,34.10
2022-12-01T12:46:29.035Z,32.53
2022-12-01T12:51:23.970Z,32.30
2022-12-01T12:56:18.807Z,32.00
2022-12-01T13:01:15.235Z,32.27
2022-12-01T13:06:13.408Z,33.23
2022-12-01T13:11:16.364Z,29.00
2022-12-01T13:16:14.885Z,92.40
2022-12-01T13:21:16.921Z,46.90
2022-12-01T13:26:12.382Z,28.63
2022-12-01T13:31:08.433Z,35.10
2022-12-01T13:36:45.132Z,33.70
2022-12-01T13:41:32.972Z,46.80
2022-12-01T13:46:28.341Z,33.33
2022-12-01T13:51:22.840Z,31.53
2022-12-01T13:56:29.696Z,35.17
2022-12-01T14:01:42.225Z,35.10
2022-12-01T14:06:42.676Z,35.23
2022-12-01T14:12:01.310Z,33.23
2022-12-01T14:16:58.859Z,29.10
2022-12-01T14:21:53.109Z,32.33
2022-12-01T14:26:49.359Z,29.60
2022-12-01T14:32:12.547Z,33.70
2022-12-01T14:37:12.070Z,33.07
2022-12-01T14:42:06.976Z,29.53
2022-12-01T14:47:02.589Z,30.30
2022-12-01T14:51:57.358Z,25.70
2022-12-01T14:56:53.650Z,33.87
2022-12-01T15:01:46.366Z,30.30
2022-12-01T15:06:39.076Z,34.30
2022-12-01T15:11:31.716Z,40.30
2022-12-01T15:16:27.166Z,41.83
2022-12-01T15:21:20.811Z,35.87
2022-12-01T15:26:18.671Z,30.03
2022-12-01T15:31:13.289Z,31.13
2022-12-01T15:36:08.238Z,30.10
2022-12-01T15:46:15.165Z,31.83
2022-12-01T15:51:11.903Z,34.23
2022-12-01T15:56:06.207Z,30.00
2022-12-01T16:01:00.204Z,30.13
2022-12-01T16:05:52.890Z,31.10
2022-12-01T16:10:47.097Z,30.73
2022-12-01T16:15:43.724Z,34.10
2022-12-01T16:20:40.251Z,32.27
2022-12-01T16:25:34.870Z,46.63
2022-12-01T16:30:31.371Z,36.47
2022-12-01T16:35:25.331Z,36.53
2022-12-01T16:40:18.242Z,34.10
2022-12-01T16:45:13.693Z,44.50
2022-12-01T16:50:08.697Z,39.97
2022-12-01T16:55:01.292Z,29.20
2022-12-01T16:59:53.838Z,35.30
2022-12-01T17:04:46.432Z,35.10
2022-12-01T17:09:40.359Z,35.60
2022-12-01T17:14:33.065Z,34.60
2022-12-01T17:19:25.636Z,37.27
2022-12-01T17:24:19.343Z,37.83
2022-12-01T17:29:13.409Z,45.30
2022-12-01T17:34:06.013Z,37.80
2022-12-01T17:38:58.816Z,33.43
2022-12-01T17:43:51.512Z,38.67
2022-12-01T17:48:46.335Z,31.60
2022-12-01T17:53:40.317Z,33.47
2022-12-01T17:58:32.922Z,33.97
2022-12-01T18:03:25.507Z,38.00
2022-12-01T18:08:19.414Z,37.47
2022-12-01T18:13:11.989Z,46.70
2022-12-01T18:18:04.708Z,70.20
2022-12-01T18:22:57.273Z,44.43
2022-12-01T18:27:58.083Z,57.03
2022-12-01T18:32:50.684Z,31.80
2022-12-01T18:37:43.227Z,32.33
2022-12-01T18:42:35.818Z,29.47
2022-12-01T18:47:30.601Z,33.53
2022-12-01T18:52:23.140Z,36.17
2022-12-01T18:57:15.722Z,33.33
2022-12-01T19:02:09.095Z,37.07
2022-12-01T19:07:03.032Z,47.70
2022-12-01T19:11:59.870Z,32.27
2022-12-01T19:16:52.509Z,39.43
2022-12-01T19:21:45.356Z,38.10
2022-12-01T19:26:40.372Z,33.90
2022-12-01T19:31:33.043Z,34.33
2022-12-01T19:36:28.341Z,39.07
2022-12-01T19:41:21.481Z,38.73
2022-12-01T19:46:16.678Z,39.97
2022-12-01T19:51:16.856Z,42.03
2022-12-01T19:56:10.351Z,42.63
2022-12-01T20:01:03.577Z,37.87
2022-12-01T20:06:01.049Z,40.87
2022-12-01T20:10:53.559Z,36.30
2022-12-01T20:15:46.085Z,40.50
2022-12-01T20:20:38.611Z,45.67
2022-12-01T20:25:32.484Z,44.97
2022-12-01T20:30:25.059Z,43.43
2022-12-01T20:35:17.617Z,42.27
2022-12-01T20:40:10.785Z,43.80
2022-12-01T20:45:05.015Z,50.13
2022-12-01T20:49:58.502Z,51.57
2022-12-01T20:54:51.456Z,61.83
2022-12-01T20:59:44.281Z,56.33
2022-12-01T21:04:38.203Z,64.23
2022-12-01T21:09:30.724Z,46.57
2022-12-01T21:14:25.438Z,50.90
2022-12-01T21:19:22.955Z,44.33
2022-12-01T21:24:18.750Z,49.47
2022-12-01T21:29:16.537Z,40.60
2022-12-01T21:34:10.616Z,42.80
2022-12-01T21:39:10.894Z,40.93
2022-12-01T21:44:14.142Z,47.47
2022-12-01T21:49:09.962Z,41.40
2022-12-01T21:54:02.784Z,48.43
2022-12-01T21:58:58.175Z,45.77
2022-12-01T22:03:52.058Z,46.97
2022-12-01T22:08:46.632Z,53.13
2022-12-01T22:13:41.426Z,52.23
2022-12-01T22:18:38.486Z,49.93
2022-12-01T22:23:34.056Z,51.10
2022-12-01T22:28:26.604Z,64.23
2022-12-01T22:33:20.937Z,54.77
2022-12-01T22:38:21.281Z,63.67
2022-12-01T22:43:22.814Z,60.07
2022-12-01T22:48:20.519Z,60.37
2022-12-01T22:53:13.927Z,56.40
2022-12-01T22:58:14.163Z,56.37
2022-12-01T23:03:11.569Z,58.93
2022-12-01T23:08:10.523Z,65.20
2022-12-01T23:13:13.801Z,57.70
2022-12-01T23:18:12.756Z,61.77
2022-12-01T23:23:06.186Z,73.07
2022-12-01T23:28:00.312Z,70.63
2022-12-01T23:32:58.308Z,60.50
2022-12-01T23:37:53.795Z,65.73
2022-12-01T23:42:46.319Z,75.83
2022-12-01T23:47:38.907Z,70.20
2022-12-01T23:52:33.285Z,61.70
2022-12-01T23:57:27.202Z,67.30
